sensor_id;sensor_type;location;lat;lon;timestamp;P1;durP1;ratioP1;P2;durP2;ratioP2
66970;SDS011;53901;51.466;-2.588;2023-10-08T00:01:14;16.30;;;5.57;;
66970;SDS011;53901;51.466;-2.588;2023-10-08T00:03:41;11.02;;;5.72;;
66970;SDS011;53901;51.466;-2.588;2023-10-08T00:06:19;13.77;;;5.80;;
66970;SDS011;53901;51.466;-2.588;2023-10-08T00:08:46;13.65;;;5.20;;
66970;SDS011;53901;51.466;-2.588;2023-10-08T00:11:12;15.25;;;5.60;;
66970;SDS011;53901;51.466;-2.588;2023-10-08T00:13:37;9.85;;;5.00;;
66970;SDS011;53901;51.466;-2.588;2023-10-08T00:16:06;14.85;;;5.38;;
66970;SDS011;53901;51.466;-2.588;2023-10-08T00:18:36;8.48;;;4.75;;
66970;SDS011;53901;51.466;-2.588;2023-10-08T00:21:14;13.77;;;5.40;;
66970;SDS011;53901;51.466;-2.588;2023-10-08T00:23:40;13.43;;;4.88;;
66970;SDS011;53901;51.466;-2.588;2023-10-08T00:26:07;16.90;;;5.40;;
66970;SDS011;53901;51.466;-2.588;2023-10-08T00:28:33;16.83;;;6.32;;
66970;SDS011;53901;51.466;-2.588;2023-10-08T00:31:01;14.10;;;6.20;;
66970;SDS011;53901;51.466;-2.588;2023-10-08T00:33:37;17.58;;;6.55;;
66970;SDS011;53901;51.466;-2.588;2023-10-08T00:36:03;13.82;;;6.00;;
66970;SDS011;53901;51.466;-2.588;2023-10-08T00:38:42;16.08;;;5.93;;
66970;SDS011;53901;51.466;-2.588;2023-10-08T00:41:12;10.98;;;5.78;;
66970;SDS011;53901;51.466;-2.588;2023-10-08T00:43:41;13.68;;;5.80;;
66970;SDS011;53901;51.466;-2.588;2023-10-08T00:46:07;13.18;;;6.15;;
66970;SDS011;53901;51.466;-2.588;2023-10-08T00:48:51;13.88;;;5.70;;
66970;SDS011;53901;51.466;-2.588;2023-10-08T00:51:24;16.15;;;6.13;;
66970;SDS011;53901;51.466;-2.588;2023-10-08T00:54:05;12.10;;;5.80;;
66970;SDS011;53901;51.466;-2.588;2023-10-08T00:56:33;10.75;;;5.47;;
66970;SDS011;53901;51.466;-2.588;2023-10-08T00:59:22;15.95;;;6.15;;
66970;SDS011;53901;51.466;-2.588;2023-10-08T01:01:48;16.10;;;7.25;;
66970;SDS011;53901;51.466;-2.588;2023-10-08T01:04:19;12.98;;;6.97;;
66970;SDS011;53901;51.466;-2.588;2023-10-08T01:06:51;17.75;;;6.97;;
66970;SDS011;53901;51.466;-2.588;2023-10-08T01:09:24;14.15;;;6.32;;
66970;SDS011;53901;51.466;-2.588;2023-10-08T01:12:18;11.75;;;6.43;;
66970;SDS011;53901;51.466;-2.588;2023-10-08T01:15:01;14.73;;;6.85;;
66970;SDS011;53901;51.466;-2.588;2023-10-08T01:17:41;15.43;;;6.15;;
66970;SDS011;53901;51.466;-2.588;2023-10-08T01:20:16;13.48;;;5.90;;
66970;SDS011;53901;51.466;-2.588;2023-10-08T01:25:42;14.05;;;5.80;;
66970;SDS011;53901;51.466;-2.588;2023-10-08T01:28:09;14.70;;;6.10;;
66970;SDS011;53901;51.466;-2.588;2023-10-08T01:30:43;13.32;;;6.65;;
66970;SDS011;53901;51.466;-2.588;2023-10-08T01:33:12;15.48;;;6.43;;
66970;SDS011;53901;51.466;-2.588;2023-10-08T01:35:40;16.50;;;6.53;;
66970;SDS011;53901;51.466;-2.588;2023-10-08T01:38:05;14.85;;;6.43;;
66970;SDS011;53901;51.466;-2.588;2023-10-08T01:40:32;14.02;;;6.05;;
66970;SDS011;53901;51.466;-2.588;2023-10-08T01:42:57;17.88;;;6.30;;
66970;SDS011;53901;51.466;-2.588;2023-10-08T01:45:26;14.60;;;6.13;;
66970;SDS011;53901;51.466;-2.588;2023-10-08T01:47:51;14.40;;;6.18;;
66970;SDS011;53901;51.466;-2.588;2023-10-08T01:50:20;15.32;;;6.22;;
66970;SDS011;53901;51.466;-2.588;2023-10-08T01:52:49;14.80;;;6.57;;
66970;SDS011;53901;51.466;-2.588;2023-10-08T01:55:14;12.02;;;6.13;;
66970;SDS011;53901;51.466;-2.588;2023-10-08T01:57:47;16.73;;;6.32;;
66970;SDS011;53901;51.466;-2.588;2023-10-08T02:00:19;14.20;;;6.18;;
66970;SDS011;53901;51.466;-2.588;2023-10-08T02:02:47;12.75;;;5.80;;
66970;SDS011;53901;51.466;-2.588;2023-10-08T02:05:12;13.55;;;6.03;;
66970;SDS011;53901;51.466;-2.588;2023-10-08T02:07:40;13.32;;;5.80;;
66970;SDS011;53901;51.466;-2.588;2023-10-08T02:10:07;13.90;;;6.38;;
66970;SDS011;53901;51.466;-2.588;2023-10-08T02:12:32;12.32;;;6.05;;
66970;SDS011;53901;51.466;-2.588;2023-10-08T02:14:58;13.93;;;6.57;;
66970;SDS011;53901;51.466;-2.588;2023-10-08T02:17:23;13.80;;;6.45;;
66970;SDS011;53901;51.466;-2.588;2023-10-08T02:19:49;14.23;;;5.85;;
66970;SDS011;53901;51.466;-2.588;2023-10-08T02:22:14;17.08;;;5.53;;
66970;SDS011;53901;51.466;-2.588;2023-10-08T02:24:39;17.23;;;5.75;;
66970;SDS011;53901;51.466;-2.588;2023-10-08T02:27:05;12.02;;;5.75;;
66970;SDS011;53901;51.466;-2.588;2023-10-08T02:29:35;15.90;;;6.57;;
66970;SDS011;53901;51.466;-2.588;2023-10-08T02:32:00;19.20;;;6.57;;
66970;SDS011;53901;51.466;-2.588;2023-10-08T02:34:26;15.50;;;6.93;;
66970;SDS011;53901;51.466;-2.588;2023-10-08T02:36:51;16.20;;;6.10;;
66970;SDS011;53901;51.466;-2.588;2023-10-08T02:39:17;11.15;;;5.80;;
66970;SDS011;53901;51.466;-2.588;2023-10-08T02:41:46;12.77;;;6.07;;
66970;SDS011;53901;51.466;-2.588;2023-10-08T02:44:13;14.60;;;5.97;;
66970;SDS011;53901;51.466;-2.588;2023-10-08T02:46:42;15.82;;;5.68;;
66970;SDS011;53901;51.466;-2.588;2023-10-08T02:49:12;14.70;;;5.93;;
66970;SDS011;53901;51.466;-2.588;2023-10-08T02:51:42;15.60;;;5.68;;
66970;SDS011;53901;51.466;-2.588;2023-10-08T02:54:10;11.55;;;5.65;;
66970;SDS011;53901;51.466;-2.588;2023-10-08T02:56:49;11.80;;;5.65;;
66970;SDS011;53901;51.466;-2.588;2023-10-08T02:59:25;16.35;;;6.25;;
66970;SDS011;53901;51.466;-2.588;2023-10-08T03:01:53;13.00;;;5.45;;
66970;SDS011;53901;51.466;-2.588;2023-10-08T03:04:21;15.82;;;6.15;;
66970;SDS011;53901;51.466;-2.588;2023-10-08T03:06:50;14.80;;;6.20;;
66970;SDS011;53901;51.466;-2.588;2023-10-08T03:09:17;11.43;;;5.90;;
66970;SDS011;53901;51.466;-2.588;2023-10-08T03:11:48;19.08;;;6.38;;
66970;SDS011;53901;51.466;-2.588;2023-10-08T03:14:14;12.02;;;6.28;;
66970;SDS011;53901;51.466;-2.588;2023-10-08T03:16:47;13.55;;;5.97;;
66970;SDS011;53901;51.466;-2.588;2023-10-08T03:19:13;12.13;;;5.88;;
66970;SDS011;53901;51.466;-2.588;2023-10-08T03:21:43;17.65;;;6.07;;
66970;SDS011;53901;51.466;-2.588;2023-10-08T03:24:16;10.88;;;5.70;;
66970;SDS011;53901;51.466;-2.588;2023-10-08T03:27:02;10.23;;;5.90;;
66970;SDS011;53901;51.466;-2.588;2023-10-08T03:29:32;12.32;;;5.97;;
66970;SDS011;53901;51.466;-2.588;2023-10-08T03:32:10;13.98;;;5.80;;
66970;SDS011;53901;51.466;-2.588;2023-10-08T03:37:15;12.20;;;6.43;;
66970;SDS011;53901;51.466;-2.588;2023-10-08T03:39:54;13.50;;;5.90;;
66970;SDS011;53901;51.466;-2.588;2023-10-08T03:42:32;12.38;;;5.20;;
66970;SDS011;53901;51.466;-2.588;2023-10-08T03:45:05;10.25;;;5.47;;
66970;SDS011;53901;51.466;-2.588;2023-10-08T03:50:11;12.77;;;4.90;;
66970;SDS011;53901;51.466;-2.588;2023-10-08T03:52:41;12.02;;;5.28;;
66970;SDS011;53901;51.466;-2.588;2023-10-08T03:55:08;13.18;;;6.03;;
66970;SDS011;53901;51.466;-2.588;2023-10-08T03:57:46;17.92;;;5.72;;
66970;SDS011;53901;51.466;-2.588;2023-10-08T04:00:21;10.07;;;5.13;;
66970;SDS011;53901;51.466;-2.588;2023-10-08T04:02:56;15.63;;;5.93;;
66970;SDS011;53901;51.466;-2.588;2023-10-08T04:05:26;19.42;;;6.30;;
66970;SDS011;53901;51.466;-2.588;2023-10-08T04:08:05;14.50;;;5.45;;
66970;SDS011;53901;51.466;-2.588;2023-10-08T04:10:42;12.70;;;5.20;;
66970;SDS011;53901;51.466;-2.588;2023-10-08T04:13:08;13.85;;;5.88;;
66970;SDS011;53901;51.466;-2.588;2023-10-08T04:15:37;13.55;;;5.30;;
66970;SDS011;53901;51.466;-2.588;2023-10-08T04:18:06;14.93;;;5.50;;
66970;SDS011;53901;51.466;-2.588;2023-10-08T04:20:32;12.23;;;5.97;;
66970;SDS011;53901;51.466;-2.588;2023-10-08T04:23:07;13.52;;;6.10;;
66970;SDS011;53901;51.466;-2.588;2023-10-08T04:25:43;13.70;;;5.97;;
66970;SDS011;53901;51.466;-2.588;2023-10-08T04:28:08;11.90;;;5.85;;
66970;SDS011;53901;51.466;-2.588;2023-10-08T04:30:39;13.18;;;5.53;;
66970;SDS011;53901;51.466;-2.588;2023-10-08T04:33:07;12.80;;;5.70;;
66970;SDS011;53901;51.466;-2.588;2023-10-08T04:35:42;12.40;;;5.53;;
66970;SDS011;53901;51.466;-2.588;2023-10-08T04:38:18;13.02;;;5.38;;
66970;SDS011;53901;51.466;-2.588;2023-10-08T04:40:46;11.40;;;5.65;;
66970;SDS011;53901;51.466;-2.588;2023-10-08T04:43:20;12.60;;;5.93;;
66970;SDS011;53901;51.466;-2.588;2023-10-08T04:45:50;10.57;;;5.13;;
66970;SDS011;53901;51.466;-2.588;2023-10-08T04:48:16;9.90;;;5.60;;
66970;SDS011;53901;51.466;-2.588;2023-10-08T04:50:46;12.00;;;5.18;;
66970;SDS011;53901;51.466;-2.588;2023-10-08T04:53:16;11.00;;;5.85;;
66970;SDS011;53901;51.466;-2.588;2023-10-08T04:55:42;10.55;;;5.22;;
66970;SDS011;53901;51.466;-2.588;2023-10-08T04:58:13;14.35;;;5.63;;
66970;SDS011;53901;51.466;-2.588;2023-10-08T05:00:46;16.38;;;5.53;;
66970;SDS011;53901;51.466;-2.588;2023-10-08T05:03:24;10.00;;;5.50;;
66970;SDS011;53901;51.466;-2.588;2023-10-08T05:05:57;13.98;;;5.72;;
66970;SDS011;53901;51.466;-2.588;2023-10-08T05:08:31;12.20;;;5.68;;
66970;SDS011;53901;51.466;-2.588;2023-10-08T05:11:23;11.18;;;5.57;;
66970;SDS011;53901;51.466;-2.588;2023-10-08T05:14:11;10.90;;;5.40;;
66970;SDS011;53901;51.466;-2.588;2023-10-08T05:16:42;11.13;;;5.72;;
66970;SDS011;53901;51.466;-2.588;2023-10-08T05:19:26;11.40;;;5.75;;
66970;SDS011;53901;51.466;-2.588;2023-10-08T05:22:11;16.15;;;5.90;;
66970;SDS011;53901;51.466;-2.588;2023-10-08T05:24:46;12.52;;;5.38;;
66970;SDS011;53901;51.466;-2.588;2023-10-08T05:27:33;10.73;;;5.93;;
66970;SDS011;53901;51.466;-2.588;2023-10-08T05:30:27;11.07;;;5.50;;
66970;SDS011;53901;51.466;-2.588;2023-10-08T05:33:02;10.02;;;5.20;;
66970;SDS011;53901;51.466;-2.588;2023-10-08T05:35:38;15.38;;;6.53;;
66970;SDS011;53901;51.466;-2.588;2023-10-08T05:41:03;16.73;;;7.88;;
66970;SDS011;53901;51.466;-2.588;2023-10-08T05:46:03;13.25;;;6.53;;
66970;SDS011;53901;51.466;-2.588;2023-10-08T05:48:50;13.52;;;6.22;;
66970;SDS011;53901;51.466;-2.588;2023-10-08T05:51:36;11.88;;;5.35;;
66970;SDS011;53901;51.466;-2.588;2023-10-08T05:56:52;17.85;;;6.00;;
66970;SDS011;53901;51.466;-2.588;2023-10-08T06:02:18;10.30;;;6.30;;
66970;SDS011;53901;51.466;-2.588;2023-10-08T06:05:02;9.77;;;5.68;;
66970;SDS011;53901;51.466;-2.588;2023-10-08T06:07:44;9.50;;;5.18;;
66970;SDS011;53901;51.466;-2.588;2023-10-08T06:10:27;10.05;;;5.60;;
66970;SDS011;53901;51.466;-2.588;2023-10-08T06:12:55;11.13;;;5.55;;
66970;SDS011;53901;51.466;-2.588;2023-10-08T06:18:19;12.13;;;6.03;;
66970;SDS011;53901;51.466;-2.588;2023-10-08T06:20:50;16.65;;;6.95;;
66970;SDS011;53901;51.466;-2.588;2023-10-08T06:23:19;10.68;;;5.60;;
66970;SDS011;53901;51.466;-2.588;2023-10-08T06:25:49;9.60;;;5.45;;
66970;SDS011;53901;51.466;-2.588;2023-10-08T06:28:34;12.30;;;5.75;;
66970;SDS011;53901;51.466;-2.588;2023-10-08T06:31:03;10.68;;;5.22;;
66970;SDS011;53901;51.466;-2.588;2023-10-08T06:33:36;12.63;;;6.03;;
66970;SDS011;53901;51.466;-2.588;2023-10-08T06:36:03;15.40;;;6.18;;
66970;SDS011;53901;51.466;-2.588;2023-10-08T06:38:45;11.18;;;6.07;;
66970;SDS011;53901;51.466;-2.588;2023-10-08T06:41:14;11.43;;;5.65;;
66970;SDS011;53901;51.466;-2.588;2023-10-08T06:43:43;9.57;;;5.47;;
66970;SDS011;53901;51.466;-2.588;2023-10-08T06:46:27;11.85;;;5.57;;
66970;SDS011;53901;51.466;-2.588;2023-10-08T06:48:54;11.50;;;5.93;;
66970;SDS011;53901;51.466;-2.588;2023-10-08T06:51:19;17.67;;;5.80;;
66970;SDS011;53901;51.466;-2.588;2023-10-08T06:53:45;12.98;;;6.00;;
66970;SDS011;53901;51.466;-2.588;2023-10-08T06:56:11;10.82;;;6.10;;
66970;SDS011;53901;51.466;-2.588;2023-10-08T06:58:37;12.82;;;5.90;;
66970;SDS011;53901;51.466;-2.588;2023-10-08T07:01:03;12.35;;;5.70;;
66970;SDS011;53901;51.466;-2.588;2023-10-08T07:03:30;13.25;;;5.90;;
66970;SDS011;53901;51.466;-2.588;2023-10-08T07:05:56;9.90;;;5.85;;
66970;SDS011;53901;51.466;-2.588;2023-10-08T07:08:28;12.32;;;6.18;;
66970;SDS011;53901;51.466;-2.588;2023-10-08T07:10:56;12.05;;;6.72;;
66970;SDS011;53901;51.466;-2.588;2023-10-08T07:13:24;12.95;;;6.00;;
66970;SDS011;53901;51.466;-2.588;2023-10-08T07:15:49;13.00;;;6.28;;
66970;SDS011;53901;51.466;-2.588;2023-10-08T07:18:15;19.08;;;7.80;;
66970;SDS011;53901;51.466;-2.588;2023-10-08T07:20:49;14.13;;;6.53;;
66970;SDS011;53901;51.466;-2.588;2023-10-08T07:23:19;13.23;;;6.22;;
66970;SDS011;53901;51.466;-2.588;2023-10-08T07:25:46;18.23;;;7.90;;
66970;SDS011;53901;51.466;-2.588;2023-10-08T07:28:18;18.20;;;7.00;;
66970;SDS011;53901;51.466;-2.588;2023-10-08T07:30:45;18.25;;;6.57;;
66970;SDS011;53901;51.466;-2.588;2023-10-08T07:33:11;13.88;;;7.20;;
66970;SDS011;53901;51.466;-2.588;2023-10-08T07:35:43;14.45;;;6.38;;
66970;SDS011;53901;51.466;-2.588;2023-10-08T07:38:37;13.93;;;6.10;;
66970;SDS011;53901;51.466;-2.588;2023-10-08T07:41:07;12.85;;;6.50;;
66970;SDS011;53901;51.466;-2.588;2023-10-08T07:43:44;16.00;;;6.07;;
66970;SDS011;53901;51.466;-2.588;2023-10-08T07:46:23;14.32;;;6.38;;
66970;SDS011;53901;51.466;-2.588;2023-10-08T07:48:52;13.93;;;6.47;;
66970;SDS011;53901;51.466;-2.588;2023-10-08T07:51:18;12.80;;;6.10;;
66970;SDS011;53901;51.466;-2.588;2023-10-08T07:53:52;15.65;;;6.90;;
66970;SDS011;53901;51.466;-2.588;2023-10-08T07:56:23;16.08;;;6.45;;
66970;SDS011;53901;51.466;-2.588;2023-10-08T07:58:50;15.20;;;6.10;;
66970;SDS011;53901;51.466;-2.588;2023-10-08T08:01:15;14.63;;;6.40;;
66970;SDS011;53901;51.466;-2.588;2023-10-08T08:03:41;13.25;;;7.40;;
66970;SDS011;53901;51.466;-2.588;2023-10-08T08:06:08;17.55;;;6.97;;
66970;SDS011;53901;51.466;-2.588;2023-10-08T08:08:37;17.33;;;6.78;;
66970;SDS011;53901;51.466;-2.588;2023-10-08T08:11:03;15.93;;;6.15;;
66970;SDS011;53901;51.466;-2.588;2023-10-08T08:13:32;12.32;;;5.85;;
66970;SDS011;53901;51.466;-2.588;2023-10-08T08:15:59;15.00;;;5.60;;
66970;SDS011;53901;51.466;-2.588;2023-10-08T08:18:44;14.15;;;5.68;;
66970;SDS011;53901;51.466;-2.588;2023-10-08T08:21:11;12.95;;;5.65;;
66970;SDS011;53901;51.466;-2.588;2023-10-08T08:23:41;17.17;;;5.75;;
66970;SDS011;53901;51.466;-2.588;2023-10-08T08:26:13;11.43;;;6.20;;
66970;SDS011;53901;51.466;-2.588;2023-10-08T08:28:51;11.50;;;5.40;;
66970;SDS011;53901;51.466;-2.588;2023-10-08T08:31:17;11.70;;;5.43;;
66970;SDS011;53901;51.466;-2.588;2023-10-08T08:33:44;13.23;;;5.15;;
66970;SDS011;53901;51.466;-2.588;2023-10-08T08:36:19;12.52;;;5.20;;
66970;SDS011;53901;51.466;-2.588;2023-10-08T08:38:45;14.13;;;6.25;;
66970;SDS011;53901;51.466;-2.588;2023-10-08T08:41:10;13.93;;;5.55;;
66970;SDS011;53901;51.466;-2.588;2023-10-08T08:43:38;13.30;;;4.60;;
66970;SDS011;53901;51.466;-2.588;2023-10-08T08:46:08;8.68;;;4.95;;
66970;SDS011;53901;51.466;-2.588;2023-10-08T08:48:37;9.82;;;4.68;;
66970;SDS011;53901;51.466;-2.588;2023-10-08T08:51:05;9.00;;;4.55;;
66970;SDS011;53901;51.466;-2.588;2023-10-08T08:53:38;9.70;;;4.80;;
66970;SDS011;53901;51.466;-2.588;2023-10-08T08:56:07;10.73;;;4.72;;
66970;SDS011;53901;51.466;-2.588;2023-10-08T08:58:37;9.52;;;4.38;;
66970;SDS011;53901;51.466;-2.588;2023-10-08T09:01:05;6.88;;;3.60;;
66970;SDS011;53901;51.466;-2.588;2023-10-08T09:03:33;11.73;;;4.20;;
66970;SDS011;53901;51.466;-2.588;2023-10-08T09:05:59;9.10;;;4.13;;
66970;SDS011;53901;51.466;-2.588;2023-10-08T09:08:37;11.00;;;4.20;;
66970;SDS011;53901;51.466;-2.588;2023-10-08T09:11:06;10.50;;;4.32;;
66970;SDS011;53901;51.466;-2.588;2023-10-08T09:13:33;9.07;;;4.68;;
66970;SDS011;53901;51.466;-2.588;2023-10-08T09:16:16;8.98;;;4.55;;
66970;SDS011;53901;51.466;-2.588;2023-10-08T09:18:44;7.53;;;4.10;;
66970;SDS011;53901;51.466;-2.588;2023-10-08T09:21:16;14.48;;;4.30;;
66970;SDS011;53901;51.466;-2.588;2023-10-08T09:23:51;8.45;;;4.63;;
66970;SDS011;53901;51.466;-2.588;2023-10-08T09:26:22;10.00;;;4.25;;
66970;SDS011;53901;51.466;-2.588;2023-10-08T09:28:52;10.07;;;4.82;;
66970;SDS011;53901;51.466;-2.588;2023-10-08T09:31:18;12.23;;;4.60;;
66970;SDS011;53901;51.466;-2.588;2023-10-08T09:33:53;8.70;;;4.45;;
66970;SDS011;53901;51.466;-2.588;2023-10-08T09:36:19;8.25;;;4.40;;
66970;SDS011;53901;51.466;-2.588;2023-10-08T09:38:45;11.48;;;4.80;;
66970;SDS011;53901;51.466;-2.588;2023-10-08T09:41:14;8.13;;;4.60;;
66970;SDS011;53901;51.466;-2.588;2023-10-08T09:43:41;11.15;;;5.38;;
66970;SDS011;53901;51.466;-2.588;2023-10-08T09:48:50;10.00;;;4.10;;
66970;SDS011;53901;51.466;-2.588;2023-10-08T09:51:18;8.57;;;4.60;;
66970;SDS011;53901;51.466;-2.588;2023-10-08T09:56:35;10.80;;;5.30;;
66970;SDS011;53901;51.466;-2.588;2023-10-08T09:59:00;10.90;;;5.60;;
66970;SDS011;53901;51.466;-2.588;2023-10-08T10:01:26;12.40;;;5.68;;
66970;SDS011;53901;51.466;-2.588;2023-10-08T10:03:52;11.77;;;5.90;;
66970;SDS011;53901;51.466;-2.588;2023-10-08T10:06:18;11.63;;;5.78;;
66970;SDS011;53901;51.466;-2.588;2023-10-08T10:08:44;10.10;;;4.95;;
66970;SDS011;53901;51.466;-2.588;2023-10-08T10:11:10;11.43;;;5.57;;
66970;SDS011;53901;51.466;-2.588;2023-10-08T10:13:57;9.30;;;5.15;;
66970;SDS011;53901;51.466;-2.588;2023-10-08T10:16:25;11.50;;;4.60;;
66970;SDS011;53901;51.466;-2.588;2023-10-08T10:18:54;9.30;;;4.70;;
66970;SDS011;53901;51.466;-2.588;2023-10-08T10:21:31;8.82;;;5.05;;
66970;SDS011;53901;51.466;-2.588;2023-10-08T10:23:58;12.25;;;5.25;;
66970;SDS011;53901;51.466;-2.588;2023-10-08T10:26:28;12.88;;;5.25;;
66970;SDS011;53901;51.466;-2.588;2023-10-08T10:31:34;10.32;;;3.88;;
66970;SDS011;53901;51.466;-2.588;2023-10-08T10:34:04;9.00;;;3.88;;
66970;SDS011;53901;51.466;-2.588;2023-10-08T10:36:36;11.43;;;3.58;;
66970;SDS011;53901;51.466;-2.588;2023-10-08T10:39:02;7.57;;;3.80;;
66970;SDS011;53901;51.466;-2.588;2023-10-08T10:41:51;10.20;;;3.90;;
66970;SDS011;53901;51.466;-2.588;2023-10-08T10:44:21;8.80;;;3.25;;
66970;SDS011;53901;51.466;-2.588;2023-10-08T10:46:46;7.38;;;3.10;;
66970;SDS011;53901;51.466;-2.588;2023-10-08T10:49:37;11.07;;;3.28;;
66970;SDS011;53901;51.466;-2.588;2023-10-08T10:52:22;9.35;;;3.20;;
66970;SDS011;53901;51.466;-2.588;2023-10-08T10:55:03;6.97;;;3.13;;
66970;SDS011;53901;51.466;-2.588;2023-10-08T10:57:41;9.82;;;3.00;;
66970;SDS011;53901;51.466;-2.588;2023-10-08T11:00:08;8.13;;;2.92;;
66970;SDS011;53901;51.466;-2.588;2023-10-08T11:02:52;7.22;;;3.15;;
66970;SDS011;53901;51.466;-2.588;2023-10-08T11:05:22;7.28;;;3.30;;
66970;SDS011;53901;51.466;-2.588;2023-10-08T11:07:56;5.28;;;2.47;;
66970;SDS011;53901;51.466;-2.588;2023-10-08T11:10:33;5.25;;;3.10;;
66970;SDS011;53901;51.466;-2.588;2023-10-08T11:13:03;7.35;;;3.10;;
66970;SDS011;53901;51.466;-2.588;2023-10-08T11:15:30;6.85;;;2.63;;
66970;SDS011;53901;51.466;-2.588;2023-10-08T11:18:11;6.27;;;2.97;;
66970;SDS011;53901;51.466;-2.588;2023-10-08T11:20:40;7.25;;;2.70;;
66970;SDS011;53901;51.466;-2.588;2023-10-08T11:23:06;6.95;;;2.50;;
66970;SDS011;53901;51.466;-2.588;2023-10-08T11:28:41;8.63;;;2.78;;
66970;SDS011;53901;51.466;-2.588;2023-10-08T11:31:07;5.25;;;2.67;;
66970;SDS011;53901;51.466;-2.588;2023-10-08T11:33:39;5.07;;;2.58;;
66970;SDS011;53901;51.466;-2.588;2023-10-08T11:36:19;7.30;;;2.42;;
66970;SDS011;53901;51.466;-2.588;2023-10-08T11:38:47;9.27;;;2.78;;
66970;SDS011;53901;51.466;-2.588;2023-10-08T11:41:13;6.22;;;3.10;;
66970;SDS011;53901;51.466;-2.588;2023-10-08T11:43:49;10.05;;;2.78;;
66970;SDS011;53901;51.466;-2.588;2023-10-08T11:46:31;8.63;;;2.83;;
66970;SDS011;53901;51.466;-2.588;2023-10-08T11:49:06;8.20;;;3.08;;
66970;SDS011;53901;51.466;-2.588;2023-10-08T11:51:36;6.15;;;3.00;;
66970;SDS011;53901;51.466;-2.588;2023-10-08T11:54:02;6.40;;;2.95;;
66970;SDS011;53901;51.466;-2.588;2023-10-08T11:56:30;6.97;;;2.55;;
66970;SDS011;53901;51.466;-2.588;2023-10-08T11:58:57;7.90;;;2.80;;
66970;SDS011;53901;51.466;-2.588;2023-10-08T12:01:23;6.78;;;2.72;;
66970;SDS011;53901;51.466;-2.588;2023-10-08T12:03:49;6.10;;;2.88;;
66970;SDS011;53901;51.466;-2.588;2023-10-08T12:06:15;6.38;;;2.80;;
66970;SDS011;53901;51.466;-2.588;2023-10-08T12:08:43;8.07;;;3.13;;
66970;SDS011;53901;51.466;-2.588;2023-10-08T12:11:15;5.22;;;2.70;;
66970;SDS011;53901;51.466;-2.588;2023-10-08T12:13:41;5.68;;;2.60;;
66970;SDS011;53901;51.466;-2.588;2023-10-08T12:16:14;4.45;;;2.50;;
66970;SDS011;53901;51.466;-2.588;2023-10-08T12:18:49;5.72;;;3.00;;
66970;SDS011;53901;51.466;-2.588;2023-10-08T12:21:21;5.50;;;2.80;;
66970;SDS011;53901;51.466;-2.588;2023-10-08T12:23:46;10.77;;;3.58;;
66970;SDS011;53901;51.466;-2.588;2023-10-08T12:26:13;5.68;;;2.95;;
66970;SDS011;53901;51.466;-2.588;2023-10-08T12:28:46;9.85;;;3.30;;
66970;SDS011;53901;51.466;-2.588;2023-10-08T12:31:15;6.85;;;3.83;;
66970;SDS011;53901;51.466;-2.588;2023-10-08T12:33:42;5.80;;;3.05;;
66970;SDS011;53901;51.466;-2.588;2023-10-08T12:36:08;7.15;;;3.00;;
66970;SDS011;53901;51.466;-2.588;2023-10-08T12:38:39;6.35;;;2.70;;
66970;SDS011;53901;51.466;-2.588;2023-10-08T12:41:06;5.57;;;2.47;;
66970;SDS011;53901;51.466;-2.588;2023-10-08T12:43:38;7.60;;;2.75;;
66970;SDS011;53901;51.466;-2.588;2023-10-08T12:46:07;6.00;;;2.92;;
66970;SDS011;53901;51.466;-2.588;2023-10-08T12:48:41;6.70;;;3.72;;
66970;SDS011;53901;51.466;-2.588;2023-10-08T12:51:09;5.47;;;2.55;;
66970;SDS011;53901;51.466;-2.588;2023-10-08T12:53:36;5.88;;;2.60;;
66970;SDS011;53901;51.466;-2.588;2023-10-08T12:56:05;5.13;;;2.38;;
66970;SDS011;53901;51.466;-2.588;2023-10-08T12:58:35;6.70;;;2.60;;
66970;SDS011;53901;51.466;-2.588;2023-10-08T13:01:07;5.27;;;2.70;;
66970;SDS011;53901;51.466;-2.588;2023-10-08T13:03:34;5.75;;;2.80;;
66970;SDS011;53901;51.466;-2.588;2023-10-08T13:06:21;6.47;;;2.67;;
66970;SDS011;53901;51.466;-2.588;2023-10-08T13:08:50;5.60;;;2.38;;
66970;SDS011;53901;51.466;-2.588;2023-10-08T13:11:21;4.57;;;2.58;;
66970;SDS011;53901;51.466;-2.588;2023-10-08T13:13:54;7.72;;;3.15;;
66970;SDS011;53901;51.466;-2.588;2023-10-08T13:16:21;5.53;;;2.67;;
66970;SDS011;53901;51.466;-2.588;2023-10-08T13:18:48;6.05;;;2.88;;
66970;SDS011;53901;51.466;-2.588;2023-10-08T13:21:14;5.68;;;2.40;;
66970;SDS011;53901;51.466;-2.588;2023-10-08T13:23:40;8.88;;;2.20;;
66970;SDS011;53901;51.466;-2.588;2023-10-08T13:26:06;7.68;;;2.65;;
66970;SDS011;53901;51.466;-2.588;2023-10-08T13:28:32;6.85;;;2.65;;
66970;SDS011;53901;51.466;-2.588;2023-10-08T13:31:02;5.50;;;2.40;;
66970;SDS011;53901;51.466;-2.588;2023-10-08T13:33:35;6.15;;;2.50;;
66970;SDS011;53901;51.466;-2.588;2023-10-08T13:36:03;6.93;;;2.80;;
66970;SDS011;53901;51.466;-2.588;2023-10-08T13:38:29;8.13;;;2.42;;
66970;SDS011;53901;51.466;-2.588;2023-10-08T13:40:55;5.00;;;2.50;;
66970;SDS011;53901;51.466;-2.588;2023-10-08T13:43:34;5.05;;;2.45;;
66970;SDS011;53901;51.466;-2.588;2023-10-08T13:46:03;6.53;;;2.58;;
66970;SDS011;53901;51.466;-2.588;2023-10-08T13:48:32;5.63;;;2.53;;
66970;SDS011;53901;51.466;-2.588;2023-10-08T13:51:02;6.20;;;2.78;;
66970;SDS011;53901;51.466;-2.588;2023-10-08T13:53:29;6.80;;;2.47;;
66970;SDS011;53901;51.466;-2.588;2023-10-08T13:55:58;5.45;;;2.50;;
66970;SDS011;53901;51.466;-2.588;2023-10-08T13:58:25;5.25;;;2.28;;
66970;SDS011;53901;51.466;-2.588;2023-10-08T14:00:53;4.85;;;2.42;;
66970;SDS011;53901;51.466;-2.588;2023-10-08T14:03:19;6.80;;;2.20;;
66970;SDS011;53901;51.466;-2.588;2023-10-08T14:05:47;4.47;;;2.20;;
66970;SDS011;53901;51.466;-2.588;2023-10-08T14:08:19;4.63;;;2.63;;
66970;SDS011;53901;51.466;-2.588;2023-10-08T14:10:47;7.57;;;2.38;;
66970;SDS011;53901;51.466;-2.588;2023-10-08T14:13:14;4.93;;;2.40;;
66970;SDS011;53901;51.466;-2.588;2023-10-08T14:15:44;5.32;;;2.28;;
66970;SDS011;53901;51.466;-2.588;2023-10-08T14:18:20;4.65;;;2.40;;
66970;SDS011;53901;51.466;-2.588;2023-10-08T14:20:51;5.93;;;2.40;;
66970;SDS011;53901;51.466;-2.588;2023-10-08T14:23:19;6.03;;;2.53;;
66970;SDS011;53901;51.466;-2.588;2023-10-08T14:25:49;5.13;;;2.40;;
66970;SDS011;53901;51.466;-2.588;2023-10-08T14:28:17;8.70;;;2.75;;
66970;SDS011;53901;51.466;-2.588;2023-10-08T14:31:05;6.97;;;2.55;;
66970;SDS011;53901;51.466;-2.588;2023-10-08T14:33:31;4.97;;;2.50;;
66970;SDS011;53901;51.466;-2.588;2023-10-08T14:38:50;5.47;;;2.33;;
66970;SDS011;53901;51.466;-2.588;2023-10-08T14:41:34;3.78;;;2.35;;
66970;SDS011;53901;51.466;-2.588;2023-10-08T14:44:18;5.10;;;2.17;;
66970;SDS011;53901;51.466;-2.588;2023-10-08T14:46:44;7.38;;;2.60;;
66970;SDS011;53901;51.466;-2.588;2023-10-08T14:49:09;7.82;;;3.40;;
66970;SDS011;53901;51.466;-2.588;2023-10-08T14:51:36;5.88;;;2.60;;
66970;SDS011;53901;51.466;-2.588;2023-10-08T14:54:02;4.93;;;2.53;;
66970;SDS011;53901;51.466;-2.588;2023-10-08T14:56:29;6.95;;;2.42;;
66970;SDS011;53901;51.466;-2.588;2023-10-08T14:58:57;4.43;;;2.60;;
66970;SDS011;53901;51.466;-2.588;2023-10-08T15:01:23;6.22;;;2.28;;
66970;SDS011;53901;51.466;-2.588;2023-10-08T15:03:50;5.10;;;2.30;;
66970;SDS011;53901;51.466;-2.588;2023-10-08T15:06:17;5.10;;;2.30;;
66970;SDS011;53901;51.466;-2.588;2023-10-08T15:08:44;4.55;;;2.55;;
66970;SDS011;53901;51.466;-2.588;2023-10-08T15:11:09;5.78;;;2.80;;
66970;SDS011;53901;51.466;-2.588;2023-10-08T15:13:35;8.10;;;2.35;;
66970;SDS011;53901;51.466;-2.588;2023-10-08T15:16:03;5.07;;;2.47;;
66970;SDS011;53901;51.466;-2.588;2023-10-08T15:18:29;6.25;;;3.00;;
66970;SDS011;53901;51.466;-2.588;2023-10-08T15:20:57;6.40;;;2.47;;
66970;SDS011;53901;51.466;-2.588;2023-10-08T15:23:23;7.53;;;2.70;;